sensor_id;sensor_type;location;lat;lon;timestamp;P1;durP1;ratioP1;P2;durP2;ratioP2
15480;SDS011;7842;50.904;6.670;2023-02-01T00:00:56;16.15;;;9.23;;
15480;SDS011;7842;50.904;6.670;2023-02-01T00:03:22;15.40;;;8.70;;
15480;SDS011;7842;50.904;6.670;2023-02-01T00:05:54;14.77;;;8.73;;
15480;SDS011;7842;50.904;6.670;2023-02-01T00:08:21;14.45;;;8.68;;
15480;SDS011;7842;50.904;6.670;2023-02-01T00:10:48;17.88;;;9.07;;
15480;SDS011;7842;50.904;6.670;2023-02-01T00:13:13;18.30;;;9.05;;
15480;SDS011;7842;50.904;6.670;2023-02-01T00:15:39;16.13;;;9.15;;
15480;SDS011;7842;50.904;6.670;2023-02-01T00:18:05;18.45;;;8.48;;
15480;SDS011;7842;50.904;6.670;2023-02-01T00:20:31;17.10;;;7.75;;
15480;SDS011;7842;50.904;6.670;2023-02-01T00:22:57;16.95;;;8.18;;
15480;SDS011;7842;50.904;6.670;2023-02-01T00:25:23;14.13;;;7.40;;
15480;SDS011;7842;50.904;6.670;2023-02-01T00:27:49;14.77;;;6.83;;
15480;SDS011;7842;50.904;6.670;2023-02-01T00:30:16;13.65;;;6.63;;
15480;SDS011;7842;50.904;6.670;2023-02-01T00:32:42;16.45;;;6.68;;
15480;SDS011;7842;50.904;6.670;2023-02-01T00:35:08;12.18;;;6.80;;
15480;SDS011;7842;50.904;6.670;2023-02-01T00:37:33;11.65;;;5.85;;
15480;SDS011;7842;50.904;6.670;2023-02-01T00:39:59;12.53;;;5.73;;
15480;SDS011;7842;50.904;6.670;2023-02-01T00:42:25;13.38;;;5.60;;
15480;SDS011;7842;50.904;6.670;2023-02-01T00:44:51;11.13;;;4.87;;
15480;SDS011;7842;50.904;6.670;2023-02-01T00:47:17;12.57;;;5.53;;
15480;SDS011;7842;50.904;6.670;2023-02-01T00:49:44;14.10;;;5.43;;
15480;SDS011;7842;50.904;6.670;2023-02-01T00:52:10;10.47;;;5.13;;
15480;SDS011;7842;50.904;6.670;2023-02-01T00:54:35;14.27;;;4.80;;
15480;SDS011;7842;50.904;6.670;2023-02-01T00:57:02;15.02;;;4.50;;
15480;SDS011;7842;50.904;6.670;2023-02-01T00:59:28;10.75;;;4.75;;
15480;SDS011;7842;50.904;6.670;2023-02-01T01:01:54;12.18;;;4.93;;
15480;SDS011;7842;50.904;6.670;2023-02-01T01:04:20;11.27;;;4.65;;
15480;SDS011;7842;50.904;6.670;2023-02-01T01:06:46;11.02;;;4.25;;
15480;SDS011;7842;50.904;6.670;2023-02-01T01:09:12;8.98;;;4.30;;
15480;SDS011;7842;50.904;6.670;2023-02-01T01:11:38;11.50;;;4.57;;
15480;SDS011;7842;50.904;6.670;2023-02-01T01:14:05;14.27;;;4.55;;
15480;SDS011;7842;50.904;6.670;2023-02-01T01:16:32;13.48;;;4.55;;
15480;SDS011;7842;50.904;6.670;2023-02-01T01:18:58;11.30;;;3.97;;
15480;SDS011;7842;50.904;6.670;2023-02-01T01:21:25;14.07;;;4.25;;
15480;SDS011;7842;50.904;6.670;2023-02-01T01:23:51;14.30;;;4.38;;
15480;SDS011;7842;50.904;6.670;2023-02-01T01:26:18;13.00;;;4.80;;
15480;SDS011;7842;50.904;6.670;2023-02-01T01:28:46;10.90;;;4.60;;
15480;SDS011;7842;50.904;6.670;2023-02-01T01:31:13;13.63;;;5.10;;
15480;SDS011;7842;50.904;6.670;2023-02-01T01:33:40;13.23;;;4.70;;
15480;SDS011;7842;50.904;6.670;2023-02-01T01:36:06;9.63;;;4.72;;
15480;SDS011;7842;50.904;6.670;2023-02-01T01:38:36;13.88;;;5.07;;
15480;SDS011;7842;50.904;6.670;2023-02-01T01:41:02;15.07;;;5.43;;
15480;SDS011;7842;50.904;6.670;2023-02-01T01:43:44;14.23;;;5.37;;
15480;SDS011;7842;50.904;6.670;2023-02-01T01:46:19;12.32;;;5.78;;
15480;SDS011;7842;50.904;6.670;2023-02-01T01:51:38;14.02;;;6.03;;
15480;SDS011;7842;50.904;6.670;2023-02-01T01:54:12;14.57;;;7.20;;
15480;SDS011;7842;50.904;6.670;2023-02-01T01:56:43;14.50;;;6.68;;
15480;SDS011;7842;50.904;6.670;2023-02-01T01:59:14;16.42;;;7.80;;
15480;SDS011;7842;50.904;6.670;2023-02-01T02:01:39;16.00;;;9.43;;
15480;SDS011;7842;50.904;6.670;2023-02-01T02:04:05;18.30;;;8.70;;
15480;SDS011;7842;50.904;6.670;2023-02-01T02:06:33;15.53;;;7.50;;
15480;SDS011;7842;50.904;6.670;2023-02-01T02:09:20;16.92;;;7.70;;
15480;SDS011;7842;50.904;6.670;2023-02-01T02:11:46;16.65;;;7.45;;
15480;SDS011;7842;50.904;6.670;2023-02-01T02:14:12;18.42;;;7.57;;
15480;SDS011;7842;50.904;6.670;2023-02-01T02:36:35;15.45;;;7.07;;
15480;SDS011;7842;50.904;6.670;2023-02-01T02:45:19;14.80;;;6.75;;
15480;SDS011;7842;50.904;6.670;2023-02-01T02:48:41;17.92;;;6.82;;
15480;SDS011;7842;50.904;6.670;2023-02-01T02:51:12;14.65;;;6.90;;
15480;SDS011;7842;50.904;6.670;2023-02-01T02:57:02;13.88;;;6.72;;
15480;SDS011;7842;50.904;6.670;2023-02-01T02:59:50;13.82;;;7.13;;
15480;SDS011;7842;50.904;6.670;2023-02-01T03:02:36;14.93;;;6.90;;
15480;SDS011;7842;50.904;6.670;2023-02-01T03:05:20;16.10;;;6.78;;
15480;SDS011;7842;50.904;6.670;2023-02-01T03:07:53;16.70;;;6.57;;
15480;SDS011;7842;50.904;6.670;2023-02-01T03:13:20;17.25;;;7.07;;
15480;SDS011;7842;50.904;6.670;2023-02-01T03:18:41;13.98;;;6.32;;
15480;SDS011;7842;50.904;6.670;2023-02-01T03:21:17;16.02;;;6.68;;
15480;SDS011;7842;50.904;6.670;2023-02-01T03:23:47;15.88;;;6.43;;
15480;SDS011;7842;50.904;6.670;2023-02-01T03:26:16;17.42;;;7.03;;
15480;SDS011;7842;50.904;6.670;2023-02-01T03:28:44;14.98;;;6.43;;
15480;SDS011;7842;50.904;6.670;2023-02-01T03:31:12;16.60;;;6.72;;
15480;SDS011;7842;50.904;6.670;2023-02-01T03:33:39;16.08;;;6.38;;
15480;SDS011;7842;50.904;6.670;2023-02-01T03:38:50;15.52;;;6.22;;
15480;SDS011;7842;50.904;6.670;2023-02-01T03:41:27;17.95;;;6.28;;
15480;SDS011;7842;50.904;6.670;2023-02-01T03:43:58;14.55;;;6.70;;
15480;SDS011;7842;50.904;6.670;2023-02-01T03:46:37;18.30;;;6.60;;
15480;SDS011;7842;50.904;6.670;2023-02-01T03:49:11;15.68;;;6.25;;
15480;SDS011;7842;50.904;6.670;2023-02-01T03:51:41;14.55;;;6.28;;
15480;SDS011;7842;50.904;6.670;2023-02-01T03:54:07;14.03;;;6.50;;
15480;SDS011;7842;50.904;6.670;2023-02-01T03:56:37;16.33;;;6.70;;
15480;SDS011;7842;50.904;6.670;2023-02-01T03:59:05;14.63;;;7.40;;
15480;SDS011;7842;50.904;6.670;2023-02-01T04:01:30;16.17;;;6.60;;
15480;SDS011;7842;50.904;6.670;2023-02-01T04:03:57;17.75;;;7.03;;
15480;SDS011;7842;50.904;6.670;2023-02-01T04:06:23;16.13;;;7.00;;
15480;SDS011;7842;50.904;6.670;2023-02-01T04:08:50;15.88;;;7.07;;
15480;SDS011;7842;50.904;6.670;2023-02-01T04:11:16;16.48;;;6.90;;
15480;SDS011;7842;50.904;6.670;2023-02-01T04:13:42;15.60;;;6.60;;
15480;SDS011;7842;50.904;6.670;2023-02-01T04:16:08;18.27;;;9.10;;
15480;SDS011;7842;50.904;6.670;2023-02-01T04:18:34;18.33;;;6.90;;
15480;SDS011;7842;50.904;6.670;2023-02-01T04:21:00;16.07;;;7.07;;
15480;SDS011;7842;50.904;6.670;2023-02-01T04:23:27;17.02;;;6.78;;
15480;SDS011;7842;50.904;6.670;2023-02-01T04:25:53;16.15;;;6.10;;
15480;SDS011;7842;50.904;6.670;2023-02-01T04:28:19;14.30;;;6.53;;
15480;SDS011;7842;50.904;6.670;2023-02-01T04:30:45;16.35;;;6.40;;
15480;SDS011;7842;50.904;6.670;2023-02-01T04:33:11;16.40;;;6.57;;
15480;SDS011;7842;50.904;6.670;2023-02-01T04:35:39;16.02;;;6.63;;
15480;SDS011;7842;50.904;6.670;2023-02-01T04:38:05;16.50;;;6.20;;
15480;SDS011;7842;50.904;6.670;2023-02-01T04:40:32;13.57;;;5.57;;
15480;SDS011;7842;50.904;6.670;2023-02-01T04:42:58;15.63;;;5.80;;
15480;SDS011;7842;50.904;6.670;2023-02-01T04:45:24;19.10;;;5.72;;
15480;SDS011;7842;50.904;6.670;2023-02-01T04:47:49;11.80;;;5.50;;
15480;SDS011;7842;50.904;6.670;2023-02-01T04:50:15;15.63;;;6.00;;
15480;SDS011;7842;50.904;6.670;2023-02-01T04:52:41;16.55;;;5.40;;
15480;SDS011;7842;50.904;6.670;2023-02-01T04:55:07;10.93;;;4.53;;
15480;SDS011;7842;50.904;6.670;2023-02-01T04:57:33;13.85;;;4.80;;
15480;SDS011;7842;50.904;6.670;2023-02-01T04:59:59;13.37;;;4.67;;
15480;SDS011;7842;50.904;6.670;2023-02-01T05:02:24;17.27;;;4.87;;
15480;SDS011;7842;50.904;6.670;2023-02-01T05:04:50;12.93;;;4.47;;
15480;SDS011;7842;50.904;6.670;2023-02-01T05:07:16;14.35;;;4.60;;
15480;SDS011;7842;50.904;6.670;2023-02-01T05:09:41;12.23;;;4.75;;
15480;SDS011;7842;50.904;6.670;2023-02-01T05:12:08;12.95;;;4.78;;
15480;SDS011;7842;50.904;6.670;2023-02-01T05:14:52;14.03;;;4.13;;
15480;SDS011;7842;50.904;6.670;2023-02-01T05:17:18;12.25;;;4.53;;
15480;SDS011;7842;50.904;6.670;2023-02-01T05:19:44;11.65;;;4.60;;
15480;SDS011;7842;50.904;6.670;2023-02-01T05:22:10;12.80;;;4.57;;
15480;SDS011;7842;50.904;6.670;2023-02-01T05:24:36;15.27;;;5.20;;
15480;SDS011;7842;50.904;6.670;2023-02-01T05:27:01;14.70;;;4.60;;
15480;SDS011;7842;50.904;6.670;2023-02-01T05:29:27;15.10;;;4.45;;
15480;SDS011;7842;50.904;6.670;2023-02-01T05:31:53;11.27;;;4.30;;
15480;SDS011;7842;50.904;6.670;2023-02-01T05:34:19;13.65;;;4.15;;
15480;SDS011;7842;50.904;6.670;2023-02-01T05:36:45;13.57;;;4.10;;
15480;SDS011;7842;50.904;6.670;2023-02-01T05:39:10;10.53;;;4.00;;
15480;SDS011;7842;50.904;6.670;2023-02-01T05:41:36;14.33;;;4.23;;
15480;SDS011;7842;50.904;6.670;2023-02-01T05:44:02;12.50;;;3.97;;
15480;SDS011;7842;50.904;6.670;2023-02-01T05:46:28;12.10;;;3.75;;
15480;SDS011;7842;50.904;6.670;2023-02-01T05:48:54;13.10;;;3.60;;
15480;SDS011;7842;50.904;6.670;2023-02-01T05:51:20;11.70;;;4.20;;
15480;SDS011;7842;50.904;6.670;2023-02-01T05:53:46;12.97;;;3.70;;
15480;SDS011;7842;50.904;6.670;2023-02-01T05:56:12;12.43;;;3.90;;
15480;SDS011;7842;50.904;6.670;2023-02-01T05:58:37;13.23;;;4.05;;
15480;SDS011;7842;50.904;6.670;2023-02-01T06:01:03;11.03;;;3.73;;
15480;SDS011;7842;50.904;6.670;2023-02-01T06:03:29;10.05;;;3.88;;
15480;SDS011;7842;50.904;6.670;2023-02-01T06:05:55;12.55;;;4.10;;
15480;SDS011;7842;50.904;6.670;2023-02-01T06:08:20;10.82;;;3.50;;
15480;SDS011;7842;50.904;6.670;2023-02-01T06:10:49;11.95;;;3.75;;
15480;SDS011;7842;50.904;6.670;2023-02-01T06:13:14;13.17;;;4.00;;
15480;SDS011;7842;50.904;6.670;2023-02-01T06:15:40;11.07;;;4.03;;
15480;SDS011;7842;50.904;6.670;2023-02-01T06:18:07;13.32;;;4.03;;
15480;SDS011;7842;50.904;6.670;2023-02-01T06:20:33;13.27;;;4.55;;
15480;SDS011;7842;50.904;6.670;2023-02-01T06:22:59;12.77;;;4.13;;
15480;SDS011;7842;50.904;6.670;2023-02-01T06:25:25;14.40;;;4.13;;
15480;SDS011;7842;50.904;6.670;2023-02-01T06:27:52;9.43;;;3.83;;
15480;SDS011;7842;50.904;6.670;2023-02-01T06:30:17;13.23;;;4.40;;
15480;SDS011;7842;50.904;6.670;2023-02-01T06:32:43;11.73;;;4.07;;
15480;SDS011;7842;50.904;6.670;2023-02-01T06:35:09;13.80;;;4.10;;
15480;SDS011;7842;50.904;6.670;2023-02-01T06:37:41;12.77;;;4.10;;
15480;SDS011;7842;50.904;6.670;2023-02-01T06:40:07;13.00;;;3.67;;
15480;SDS011;7842;50.904;6.670;2023-02-01T06:42:33;14.55;;;3.85;;
15480;SDS011;7842;50.904;6.670;2023-02-01T06:44:59;14.93;;;4.05;;
15480;SDS011;7842;50.904;6.670;2023-02-01T06:47:24;14.53;;;4.53;;
15480;SDS011;7842;50.904;6.670;2023-02-01T06:49:50;15.23;;;3.80;;
15480;SDS011;7842;50.904;6.670;2023-02-01T06:52:15;15.73;;;4.20;;
15480;SDS011;7842;50.904;6.670;2023-02-01T06:54:41;11.95;;;4.25;;
15480;SDS011;7842;50.904;6.670;2023-02-01T06:57:07;11.75;;;3.90;;
15480;SDS011;7842;50.904;6.670;2023-02-01T06:59:33;11.63;;;4.20;;
15480;SDS011;7842;50.904;6.670;2023-02-01T07:01:58;10.85;;;3.90;;
15480;SDS011;7842;50.904;6.670;2023-02-01T07:04:24;11.88;;;4.07;;
15480;SDS011;7842;50.904;6.670;2023-02-01T07:06:50;14.18;;;4.35;;
15480;SDS011;7842;50.904;6.670;2023-02-01T07:09:16;13.43;;;4.55;;
15480;SDS011;7842;50.904;6.670;2023-02-01T07:11:42;12.68;;;4.00;;
15480;SDS011;7842;50.904;6.670;2023-02-01T07:14:08;12.45;;;4.05;;
15480;SDS011;7842;50.904;6.670;2023-02-01T07:16:36;10.52;;;4.03;;
15480;SDS011;7842;50.904;6.670;2023-02-01T07:19:02;10.60;;;4.38;;
15480;SDS011;7842;50.904;6.670;2023-02-01T07:21:28;12.57;;;4.18;;
15480;SDS011;7842;50.904;6.670;2023-02-01T07:23:54;14.52;;;3.97;;
15480;SDS011;7842;50.904;6.670;2023-02-01T07:26:20;13.63;;;3.97;;
15480;SDS011;7842;50.904;6.670;2023-02-01T07:28:46;14.35;;;4.28;;
15480;SDS011;7842;50.904;6.670;2023-02-01T07:31:13;11.57;;;4.00;;
15480;SDS011;7842;50.904;6.670;2023-02-01T07:33:44;11.70;;;4.00;;
15480;SDS011;7842;50.904;6.670;2023-02-01T07:36:11;16.35;;;4.45;;
15480;SDS011;7842;50.904;6.670;2023-02-01T07:38:38;12.75;;;3.95;;
15480;SDS011;7842;50.904;6.670;2023-02-01T07:41:06;15.75;;;4.13;;
15480;SDS011;7842;50.904;6.670;2023-02-01T07:43:33;12.90;;;4.05;;
15480;SDS011;7842;50.904;6.670;2023-02-01T07:45:59;13.77;;;4.53;;
15480;SDS011;7842;50.904;6.670;2023-02-01T07:48:25;16.30;;;4.27;;
15480;SDS011;7842;50.904;6.670;2023-02-01T07:53:50;18.50;;;4.57;;
15480;SDS011;7842;50.904;6.670;2023-02-01T07:56:19;11.02;;;3.90;;
15480;SDS011;7842;50.904;6.670;2023-02-01T07:58:50;14.05;;;3.85;;
15480;SDS011;7842;50.904;6.670;2023-02-01T08:01:19;11.55;;;3.42;;
15480;SDS011;7842;50.904;6.670;2023-02-01T08:03:50;12.98;;;3.80;;
15480;SDS011;7842;50.904;6.670;2023-02-01T08:06:18;14.25;;;3.85;;
15480;SDS011;7842;50.904;6.670;2023-02-01T08:08:47;16.00;;;4.33;;
15480;SDS011;7842;50.904;6.670;2023-02-01T08:11:14;14.35;;;3.88;;
15480;SDS011;7842;50.904;6.670;2023-02-01T08:13:41;15.18;;;4.13;;
15480;SDS011;7842;50.904;6.670;2023-02-01T08:16:07;15.90;;;4.13;;
15480;SDS011;7842;50.904;6.670;2023-02-01T08:18:34;16.98;;;4.72;;
15480;SDS011;7842;50.904;6.670;2023-02-01T08:21:08;14.43;;;4.20;;
15480;SDS011;7842;50.904;6.670;2023-02-01T08:23:45;12.07;;;3.80;;
15480;SDS011;7842;50.904;6.670;2023-02-01T08:26:15;13.43;;;3.87;;
15480;SDS011;7842;50.904;6.670;2023-02-01T08:28:44;14.00;;;4.13;;
15480;SDS011;7842;50.904;6.670;2023-02-01T08:31:12;13.30;;;3.80;;
15480;SDS011;7842;50.904;6.670;2023-02-01T08:33:40;14.93;;;4.47;;
15480;SDS011;7842;50.904;6.670;2023-02-01T08:36:06;16.70;;;4.05;;
15480;SDS011;7842;50.904;6.670;2023-02-01T08:38:34;12.23;;;3.75;;
15480;SDS011;7842;50.904;6.670;2023-02-01T08:41:04;13.15;;;3.55;;
15480;SDS011;7842;50.904;6.670;2023-02-01T08:43:31;14.32;;;3.72;;
15480;SDS011;7842;50.904;6.670;2023-02-01T08:45:57;15.00;;;4.20;;
15480;SDS011;7842;50.904;6.670;2023-02-01T08:48:22;14.50;;;4.10;;
15480;SDS011;7842;50.904;6.670;2023-02-01T08:50:48;14.23;;;4.17;;
15480;SDS011;7842;50.904;6.670;2023-02-01T08:53:14;14.68;;;4.07;;
15480;SDS011;7842;50.904;6.670;2023-02-01T08:55:39;13.15;;;4.32;;
15480;SDS011;7842;50.904;6.670;2023-02-01T08:58:05;17.70;;;4.68;;
15480;SDS011;7842;50.904;6.670;2023-02-01T09:00:30;15.00;;;4.07;;
15480;SDS011;7842;50.904;6.670;2023-02-01T09:02:56;13.87;;;4.00;;
15480;SDS011;7842;50.904;6.670;2023-02-01T09:05:21;12.67;;;3.60;;
15480;SDS011;7842;50.904;6.670;2023-02-01T09:07:51;15.15;;;3.63;;
15480;SDS011;7842;50.904;6.670;2023-02-01T09:10:17;15.23;;;3.97;;
15480;SDS011;7842;50.904;6.670;2023-02-01T09:12:43;12.67;;;3.80;;
15480;SDS011;7842;50.904;6.670;2023-02-01T09:15:08;12.03;;;3.90;;
15480;SDS011;7842;50.904;6.670;2023-02-01T09:17:34;13.00;;;4.15;;
15480;SDS011;7842;50.904;6.670;2023-02-01T09:20:00;13.38;;;4.10;;
15480;SDS011;7842;50.904;6.670;2023-02-01T09:22:26;17.77;;;4.18;;
15480;SDS011;7842;50.904;6.670;2023-02-01T09:24:52;14.10;;;4.40;;
15480;SDS011;7842;50.904;6.670;2023-02-01T09:27:20;14.07;;;4.07;;
15480;SDS011;7842;50.904;6.670;2023-02-01T09:29:46;12.40;;;4.10;;
15480;SDS011;7842;50.904;6.670;2023-02-01T09:32:17;13.40;;;4.05;;
15480;SDS011;7842;50.904;6.670;2023-02-01T09:34:43;13.68;;;4.20;;
15480;SDS011;7842;50.904;6.670;2023-02-01T09:37:08;12.70;;;4.00;;
15480;SDS011;7842;50.904;6.670;2023-02-01T09:39:34;16.83;;;4.18;;
15480;SDS011;7842;50.904;6.670;2023-02-01T09:42:06;15.20;;;3.88;;
15480;SDS011;7842;50.904;6.670;2023-02-01T09:47:23;12.85;;;4.28;;
15480;SDS011;7842;50.904;6.670;2023-02-01T09:50:00;13.65;;;3.83;;
15480;SDS011;7842;50.904;6.670;2023-02-01T09:53:29;16.10;;;4.15;;
15480;SDS011;7842;50.904;6.670;2023-02-01T09:55:37;13.65;;;3.72;;
15480;SDS011;7842;50.904;6.670;2023-02-01T09:58:14;14.57;;;4.00;;
15480;SDS011;7842;50.904;6.670;2023-02-01T10:00:50;11.27;;;3.50;;
15480;SDS011;7842;50.904;6.670;2023-02-01T10:03:17;15.10;;;3.97;;
15480;SDS011;7842;50.904;6.670;2023-02-01T10:14:53;12.48;;;3.78;;
15480;SDS011;7842;50.904;6.670;2023-02-01T10:17:24;14.63;;;3.60;;
15480;SDS011;7842;50.904;6.670;2023-02-01T10:20:19;12.55;;;3.63;;
15480;SDS011;7842;50.904;6.670;2023-02-01T10:23:04;12.98;;;3.88;;
15480;SDS011;7842;50.904;6.670;2023-02-01T10:26:02;13.07;;;4.05;;
15480;SDS011;7842;50.904;6.670;2023-02-01T10:28:30;10.80;;;3.30;;
15480;SDS011;7842;50.904;6.670;2023-02-01T10:30:59;12.13;;;4.03;;
15480;SDS011;7842;50.904;6.670;2023-02-01T10:33:33;12.53;;;3.87;;
15480;SDS011;7842;50.904;6.670;2023-02-01T10:38:44;13.40;;;3.90;;
15480;SDS011;7842;50.904;6.670;2023-02-01T10:41:15;13.65;;;3.90;;
15480;SDS011;7842;50.904;6.670;2023-02-01T10:43:49;11.60;;;3.60;;
15480;SDS011;7842;50.904;6.670;2023-02-01T10:46:19;15.38;;;3.90;;
15480;SDS011;7842;50.904;6.670;2023-02-01T10:48:47;12.80;;;3.47;;
15480;SDS011;7842;50.904;6.670;2023-02-01T10:51:28;11.98;;;3.80;;
15480;SDS011;7842;50.904;6.670;2023-02-01T10:54:03;14.98;;;3.95;;
15480;SDS011;7842;50.904;6.670;2023-02-01T10:56:40;13.50;;;3.83;;
15480;SDS011;7842;50.904;6.670;2023-02-01T10:59:20;13.05;;;4.03;;
15480;SDS011;7842;50.904;6.670;2023-02-01T11:01:49;10.35;;;3.72;;
15480;SDS011;7842;50.904;6.670;2023-02-01T11:04:22;15.50;;;3.97;;
15480;SDS011;7842;50.904;6.670;2023-02-01T11:06:52;13.35;;;4.45;;
15480;SDS011;7842;50.904;6.670;2023-02-01T11:09:19;10.07;;;3.60;;
15480;SDS011;7842;50.904;6.670;2023-02-01T11:14:17;13.47;;;3.87;;
15480;SDS011;7842;50.904;6.670;2023-02-01T11:16:46;10.20;;;3.90;;
15480;SDS011;7842;50.904;6.670;2023-02-01T11:19:20;12.25;;;4.00;;
15480;SDS011;7842;50.904;6.670;2023-02-01T11:21:53;13.53;;;3.97;;
15480;SDS011;7842;50.904;6.670;2023-02-01T11:26:58;11.57;;;3.47;;
15480;SDS011;7842;50.904;6.670;2023-02-01T11:29:27;11.32;;;3.63;;
15480;SDS011;7842;50.904;6.670;2023-02-01T11:31:58;11.05;;;3.72;;
15480;SDS011;7842;50.904;6.670;2023-02-01T11:37:27;14.37;;;3.90;;
15480;SDS011;7842;50.904;6.670;2023-02-01T11:42:59;14.13;;;4.40;;
15480;SDS011;7842;50.904;6.670;2023-02-01T11:45:37;10.60;;;3.50;;
15480;SDS011;7842;50.904;6.670;2023-02-01T11:48:07;12.70;;;4.07;;
15480;SDS011;7842;50.904;6.670;2023-02-01T11:50:46;11.32;;;3.90;;
15480;SDS011;7842;50.904;6.670;2023-02-01T11:53:55;10.63;;;3.70;;
15480;SDS011;7842;50.904;6.670;2023-02-01T11:56:54;9.00;;;3.40;;
15480;SDS011;7842;50.904;6.670;2023-02-01T12:14:16;10.63;;;3.92;;
15480;SDS011;7842;50.904;6.670;2023-02-01T12:39:40;10.85;;;4.18;;
15480;SDS011;7842;50.904;6.670;2023-02-01T12:42:31;11.05;;;3.40;;
15480;SDS011;7842;50.904;6.670;2023-02-01T12:45:11;9.45;;;3.20;;
15480;SDS011;7842;50.904;6.670;2023-02-01T12:47:46;8.68;;;3.63;;
15480;SDS011;7842;50.904;6.670;2023-02-01T12:50:23;11.77;;;4.15;;
15480;SDS011;7842;50.904;6.670;2023-02-01T12:52:54;11.45;;;3.30;;
15480;SDS011;7842;50.904;6.670;2023-02-01T12:55:41;11.57;;;3.80;;
15480;SDS011;7842;50.904;6.670;2023-02-01T12:58:24;10.10;;;3.35;;
15480;SDS011;7842;50.904;6.670;2023-02-01T13:03:52;8.23;;;3.75;;
15480;SDS011;7842;50.904;6.670;2023-02-01T13:06:47;9.48;;;3.17;;
15480;SDS011;7842;50.904;6.670;2023-02-01T13:09:32;12.23;;;3.50;;
15480;SDS011;7842;50.904;6.670;2023-02-01T13:12:03;12.83;;;3.40;;
15480;SDS011;7842;50.904;6.670;2023-02-01T13:14:54;13.10;;;3.63;;
15480;SDS011;7842;50.904;6.670;2023-02-01T13:17:26;8.93;;;3.40;;
15480;SDS011;7842;50.904;6.670;2023-02-01T13:22:42;11.15;;;3.92;;
15480;SDS011;7842;50.904;6.670;2023-02-01T13:25:13;11.73;;;3.20;;
15480;SDS011;7842;50.904;6.670;2023-02-01T13:27:55;10.03;;;3.67;;
15480;SDS011;7842;50.904;6.670;2023-02-01T13:30:30;12.87;;;3.43;;
15480;SDS011;7842;50.904;6.670;2023-02-01T13:33:14;10.43;;;3.38;;
15480;SDS011;7842;50.904;6.670;2023-02-01T13:36:14;9.45;;;2.88;;
15480;SDS011;7842;50.904;6.670;2023-02-01T13:39:11;9.32;;;2.83;;
15480;SDS011;7842;50.904;6.670;2023-02-01T13:44:38;10.02;;;3.28;;
15480;SDS011;7842;50.904;6.670;2023-02-01T13:47:12;10.55;;;2.70;;
15480;SDS011;7842;50.904;6.670;2023-02-01T13:49:52;9.17;;;3.20;;
15480;SDS011;7842;50.904;6.670;2023-02-01T13:52:25;9.38;;;2.75;;
15480;SDS011;7842;50.904;6.670;2023-02-01T13:55:00;9.60;;;3.00;;
15480;SDS011;7842;50.904;6.670;2023-02-01T13:57:59;11.45;;;3.30;;
15480;SDS011;7842;50.904;6.670;2023-02-01T14:00:45;12.55;;;3.17;;
15480;SDS011;7842;50.904;6.670;2023-02-01T14:03:15;8.32;;;2.72;;
15480;SDS011;7842;50.904;6.670;2023-02-01T14:08:13;11.27;;;3.33;;
15480;SDS011;7842;50.904;6.670;2023-02-01T14:10:56;8.75;;;2.80;;
15480;SDS011;7842;50.904;6.670;2023-02-01T14:26:41;9.70;;;3.03;;
15480;SDS011;7842;50.904;6.670;2023-02-01T14:34:48;9.27;;;2.73;;
15480;SDS011;7842;50.904;6.670;2023-02-01T14:44:40;9.20;;;2.50;;
15480;SDS011;7842;50.904;6.670;2023-02-01T14:49:49;10.10;;;3.22;;
15480;SDS011;7842;50.904;6.670;2023-02-01T14:52:42;9.02;;;2.50;;
15480;SDS011;7842;50.904;6.670;2023-02-01T14:55:15;8.35;;;2.75;;
15480;SDS011;7842;50.904;6.670;2023-02-01T14:57:50;7.32;;;2.95;;
15480;SDS011;7842;50.904;6.670;2023-02-01T15:00:23;6.93;;;3.30;;
15480;SDS011;7842;50.904;6.670;2023-02-01T15:02:51;9.85;;;3.53;;
15480;SDS011;7842;50.904;6.670;2023-02-01T15:07:55;9.40;;;3.50;;
15480;SDS011;7842;50.904;6.670;2023-02-01T15:10:41;12.20;;;4.47;;
15480;SDS011;7842;50.904;6.670;2023-02-01T15:13:18;8.82;;;3.72;;
15480;SDS011;7842;50.904;6.670;2023-02-01T15:16:01;10.77;;;5.53;;
15480;SDS011;7842;50.904;6.670;2023-02-01T15:18:29;9.35;;;3.97;;
15480;SDS011;7842;50.904;6.670;2023-02-01T15:20:59;9.65;;;3.20;;
15480;SDS011;7842;50.904;6.670;2023-02-01T15:23:26;10.52;;;3.60;;
15480;SDS011;7842;50.904;6.670;2023-02-01T15:25:53;9.45;;;3.03;;
15480;SDS011;7842;50.904;6.670;2023-02-01T15:28:20;8.73;;;2.53;;
15480;SDS011;7842;50.904;6.670;2023-02-01T15:33:29;7.38;;;2.58;;
15480;SDS011;7842;50.904;6.670;2023-02-01T15:38:31;7.70;;;2.58;;
15480;SDS011;7842;50.904;6.670;2023-02-01T15:43:29;10.32;;;2.85;;
15480;SDS011;7842;50.904;6.670;2023-02-01T15:46:01;7.40;;;2.67;;
15480;SDS011;7842;50.904;6.670;2023-02-01T15:48:31;7.65;;;2.38;;
15480;SDS011;7842;50.904;6.670;2023-02-01T15:50:58;9.45;;;2.75;;
15480;SDS011;7842;50.904;6.670;2023-02-01T15:53:24;9.43;;;3.20;;
15480;SDS011;7842;50.904;6.670;2023-02-01T15:55:56;9.65;;;3.38;;
15480;SDS011;7842;50.904;6.670;2023-02-01T15:58:24;8.57;;;3.17;;
15480;SDS011;7842;50.904;6.670;2023-02-01T16:00:52;8.95;;;3.15;;
15480;SDS011;7842;50.904;6.670;2023-02-01T16:03:25;10.45;;;3.30;;
15480;SDS011;7842;50.904;6.670;2023-02-01T16:06:09;8.18;;;2.90;;
15480;SDS011;7842;50.904;6.670;2023-02-01T16:08:37;10.68;;;3.10;;
15480;SDS011;7842;50.904;6.670;2023-02-01T16:11:23;9.20;;;3.30;;
15480;SDS011;7842;50.904;6.670;2023-02-01T16:13:55;7.37;;;3.17;;
15480;SDS011;7842;50.904;6.670;2023-02-01T16:16:25;7.57;;;2.90;;
15480;SDS011;7842;50.904;6.670;2023-02-01T16:18:51;9.50;;;2.70;;
15480;SDS011;7842;50.904;6.670;2023-02-01T16:21:17;7.03;;;2.80;;
15480;SDS011;7842;50.904;6.670;2023-02-01T16:23:43;8.38;;;3.03;;
15480;SDS011;7842;50.904;6.670;2023-02-01T16:26:14;9.80;;;3.45;;
15480;SDS011;7842;50.904;6.670;2023-02-01T16:28:40;10.88;;;3.25;;
15480;SDS011;7842;50.904;6.670;2023-02-01T16:31:08;11.40;;;3.95;;
15480;SDS011;7842;50.904;6.670;2023-02-01T16:33:41;10.27;;;3.97;;
15480;SDS011;7842;50.904;6.670;2023-02-01T16:36:07;10.17;;;3.50;;
15480;SDS011;7842;50.904;6.670;2023-02-01T16:38:33;11.68;;;3.70;;
15480;SDS011;7842;50.904;6.670;2023-02-01T16:40:59;11.03;;;3.30;;
15480;SDS011;7842;50.904;6.670;2023-02-01T16:43:27;10.77;;;3.80;;
15480;SDS011;7842;50.904;6.670;2023-02-01T16:45:53;12.77;;;4.00;;
15480;SDS011;7842;50.904;6.670;2023-02-01T16:50:55;9.50;;;3.85;;
15480;SDS011;7842;50.904;6.670;2023-02-01T16:53:26;11.65;;;3.97;;
15480;SDS011;7842;50.904;6.670;2023-02-01T16:55:53;10.18;;;3.45;;
15480;SDS011;7842;50.904;6.670;2023-02-01T16:58:20;10.25;;;3.55;;
15480;SDS011;7842;50.904;6.670;2023-02-01T17:00:46;9.18;;;3.80;;
15480;SDS011;7842;50.904;6.670;2023-02-01T17:03:13;8.57;;;3.08;;
15480;SDS011;7842;50.904;6.670;2023-02-01T17:05:44;9.77;;;3.20;;
15480;SDS011;7842;50.904;6.670;2023-02-01T17:08:14;9.98;;;3.70;;
15480;SDS011;7842;50.904;6.670;2023-02-01T17:10:45;12.00;;;4.20;;
15480;SDS011;7842;50.904;6.670;2023-02-01T17:13:15;8.85;;;3.97;;
15480;SDS011;7842;50.904;6.670;2023-02-01T17:15:44;10.75;;;3.60;;
15480;SDS011;7842;50.904;6.670;2023-02-01T17:18:22;11.15;;;4.22;;
15480;SDS011;7842;50.904;6.670;2023-02-01T17:20:50;10.00;;;4.40;;
15480;SDS011;7842;50.904;6.670;2023-02-01T17:23:17;11.93;;;3.90;;
15480;SDS011;7842;50.904;6.670;2023-02-01T17:25:43;11.57;;;3.88;;
15480;SDS011;7842;50.904;6.670;2023-02-01T17:28:09;11.77;;;4.30;;
15480;SDS011;7842;50.904;6.670;2023-02-01T17:30:36;13.85;;;5.10;;
15480;SDS011;7842;50.904;6.670;2023-02-01T17:33:03;14.30;;;5.10;;
15480;SDS011;7842;50.904;6.670;2023-02-01T17:35:29;13.37;;;5.43;;
15480;SDS011;7842;50.904;6.670;2023-02-01T17:37:56;11.48;;;4.78;;
15480;SDS011;7842;50.904;6.670;2023-02-01T17:40:22;10.13;;;4.60;;
15480;SDS011;7842;50.904;6.670;2023-02-01T17:42:48;12.88;;;4.53;;
15480;SDS011;7842;50.904;6.670;2023-02-01T17:47:45;15.77;;;5.60;;
15480;SDS011;7842;50.904;6.670;2023-02-01T17:50:12;12.07;;;5.03;;